Airfield :
LOGIN :

Register | Disclaimer

   EN    FR    IT 

 










Legend :    VFR   Marginal VFR   IFR   Intensive IFR   Very Intensive IFR
Visi :
Ceiling :
>= 8 km
>= 3000ft
5 to 8 km
1000 to 3000 ft
1500m to 5 km
500 to 1000 ft
800 to 1500m
200 to 500 ft
< 800m
< 200 ft
Symbols :   Thunderstorms  Fog  Heavy snow  Heavy precipitations  Wind > 20 kt
SIGMETs :     Misc.  Thunderstorms  Icing  Turbulence  Mountain Waves  Volcanic Ashes







- Airport Elevation : 3368 ft


LSGC - Les Eplatures

CURRENT METAR :
  • 230220Z AUTO 23005KT 150V270 9999 BKN007 14/14 Q1020

EXPIRED METARs :
  • 230150Z AUTO 24007KT 200V270 9999 BKN007 14/14 Q1020
  • 230120Z AUTO 23005KT 190V260 9999 BKN006 14/14 Q1020
  • 230050Z AUTO 22004KT 170V260 9999 BKN010 14/14 Q1020
  • 230020Z AUTO 23003KT 190V270 9999 OVC010 SCT100 //////TCU 14/14 Q1020 RERA
  • 222350Z AUTO 26004KT 9999 RA SCT050CB BKN070 14/14 Q1020 RETSRA

Expired Forecast.
No reported NOTAMs for that airfield.



MET'MAP, your aeronautical weather chart ! - Copyright ORBIFLY December 2007 - Disclaimer

ORBIFLY MET'MAP TEAM :

Programming & Development : Alexandra Zaïnal
Concept & Development : Baudouin d'Aumeries
Co-Development & Prog : Marc-Olivier Méhu
Technical & hardware support : Manuel Goepfert

Contact : metmap@orbifly.com




SOURCES & CREDITS :

   NOAA